Terminal Aerodrome Forecast
Issued by NWS Missoula, MT

Home | Current Version | Previous Version | Text Only | Print | Product List | Glossary On
Versions: 1 2 3 4 5 6 7 8 9 10 11 12 13 14 15
000
FTUS45 KMSO 262320
TAFMSO
TAF
KMSO 262320Z 2700/2724 30005KT P6SM BKN050
     FM271200 00000KT P6SM VCFG FEW050
     FM271500 30005KT P6SM FEW050=

USA.gov is the U.S. government's official web portal to all federal, state and local government web resources and services.